Time;durP1;ratioP1;P1;durP2;ratioP2;P2;SDS_P1;SDS_P2;PMS_P1;PMS_P2;Temp;Humidity;BMP_temperature;BMP_pressure;BME280_temperature;BME280_humidity;BME280_pressure;Samples;Min_cycle;Max_cycle;Signal;HPM_P1;HPM_P2
2022/05/29 00:00:04;;;;;;;;;;;;;;;;;;5049018;28;19916;-74
2022/05/29 00:02:37;;;;;;;;;;;;;;;;;;5038159;28;19934;-74
2022/05/29 00:05:02;;;;;;;;;;;;;;;;;;5048665;28;19920;-74
2022/05/29 00:07:28;;;;;;;;;;;;;;;;;;5058572;28;19913;-74
2022/05/29 00:09:53;;;;;;;;;;;;;;;;;;5048543;28;19913;-74
2022/05/29 00:12:20;;;;;;;;;;;;;;;;;;5043809;28;19916;-75
2022/05/29 00:14:47;;;;;;;;;;;;;;;;;;5050352;28;19943;-75
2022/05/29 00:17:14;;;;;;;;;;;;;;;;;;5041849;28;19913;-74
2022/05/29 00:19:39;;;;;;;;;;;;;;;;;;5042551;28;19919;-74
2022/05/29 00:22:05;;;;;;;;;;;;;;;;;;5036496;28;19936;-75
2022/05/29 00:24:31;;;;;;;;;;;;;;;;;;5041988;28;19951;-74
2022/05/29 00:26:56;;;;;;;;;;;;;;;;;;5052524;28;19919;-75
2022/05/29 00:29:22;;;;;;;;;;;;;;;;;;5041367;28;19919;-75
2022/05/29 00:31:48;;;;;;;;;;;;;;;;;;5042590;28;19960;-75
2022/05/29 00:34:13;;;;;;;;;;;;;;;;;;5055802;28;19912;-74
2022/05/29 00:36:40;;;;;;;;;;;;;;;;;;5054077;28;20296;-74
2022/05/29 00:39:06;;;;;;;;;;;;;;;;;;5044306;28;19920;-74
2022/05/29 00:41:33;;;;;;;;;;;;;;;;;;5062035;28;19912;-74
2022/05/29 00:44:16;;;;;;;;;;;;;;;;;;5057388;28;19912;-74
2022/05/29 00:46:50;;;;;;;;;;;;;;;;;;5055537;28;19916;-74
2022/05/29 00:49:17;;;;;;;;;;;;;;;;;;5045275;28;20201;-73
2022/05/29 00:51:45;;;;;;;;;;;;;;;;;;5068266;28;19919;-75
2022/05/29 00:54:11;;;;;;;;;;;;;;;;;;5043352;28;19920;-74
2022/05/29 00:56:38;;;;;;;;;;;;;;;;;;5044707;28;19916;-74
2022/05/29 00:59:04;;;;;;;;;;;;;;;;;;5048720;28;20003;-74
2022/05/29 01:01:29;;;;;;;;;;;;;;;;;;5057308;28;19919;-74
2022/05/29 01:03:55;;;;;;;;;;;;;;;;;;5035725;28;19916;-74
2022/05/29 01:06:21;;;;;;;;;;;;;;;;;;5053477;28;19912;-74
2022/05/29 01:08:46;;;;;;;;;;;;;;;;;;5057848;28;19920;-74
2022/05/29 01:11:15;;;;;;;;;;;;;;;;;;5058998;28;20003;-75
2022/05/29 01:14:00;;;;;;;;;;;;;;;;;;5040296;28;19912;-74
2022/05/29 01:16:26;;;;;;;;;;;;;;;;;;5056081;28;19943;-75
2022/05/29 01:18:57;;;;;;;;;;;;;;;;;;5061582;28;20399;-74
2022/05/29 01:21:41;;;;;;;;;;;;;;;;;;5039857;28;19913;-74
2022/05/29 01:24:27;;;;;;;;;;;;;;;;;;5042657;28;19928;-75
2022/05/29 01:27:01;;;;;;;;;;;;;;;;;;5020975;28;19912;-74
2022/05/29 01:29:48;;;;;;;;;;;;;;;;;;5049043;28;20638;-75
2022/05/29 01:32:16;;;;;;;;;;;;;;;;;;5054646;28;20076;-75
2022/05/29 01:34:45;;;;;;;;;;;;;;;;;;5062000;28;20628;-75
2022/05/29 01:37:14;;;;;;;;;;;;;;;;;;5049902;28;19916;-75
2022/05/29 01:39:52;;;;;;;;;;;;;;;;;;5039873;28;19920;-75
2022/05/29 01:42:29;;;;;;;;;;;;;;;;;;5048222;28;20011;-75
2022/05/29 01:44:55;;;;;;;;;;;;;;;;;;5048674;28;19962;-75
2022/05/29 01:47:23;;;;;;;;;;;;;;;;;;5041383;28;19914;-75
2022/05/29 01:49:50;;;;;;;;;;;;;;;;;;5037576;28;19919;-75
2022/05/29 01:52:16;;;;;;;;;;;;;;;;;;5048523;28;19956;-74
2022/05/29 01:54:43;;;;;;;;;;;;;;;;;;5040472;28;19967;-75
2022/05/29 01:57:21;;;;;;;;;;;;;;;;;;5040847;28;19913;-74
2022/05/29 02:00:07;;;;;;;;;;;;;;;;;;5048113;28;19974;-74
2022/05/29 02:02:36;;;;;;;;;;;;;;;;;;5050004;28;20410;-75
2022/05/29 02:05:04;;;;;;;;;;;;;;;;;;5043352;28;20396;-74
2022/05/29 02:07:49;;;;;;;;;;;;;;;;;;5048442;28;19913;-75
2022/05/29 02:10:31;;;;;;;;;;;;;;;;;;5058850;28;19912;-75
2022/05/29 02:13:10;;;;;;;;;;;;;;;;;;5039856;28;20451;-75
2022/05/29 02:15:42;;;;;;;;;;;;;;;;;;5047138;28;20571;-75
2022/05/29 02:18:10;;;;;;;;;;;;;;;;;;5052397;28;19919;-75
2022/05/29 02:20:38;;;;;;;;;;;;;;;;;;5056260;28;19912;-75
2022/05/29 02:23:07;;;;;;;;;;;;;;;;;;5046701;28;20015;-75
2022/05/29 02:25:35;;;;;;;;;;;;;;;;;;5037871;28;20008;-75
2022/05/29 02:28:06;;;;;;;;;;;;;;;;;;5044343;28;19935;-74
2022/05/29 02:30:50;;;;;;;;;;;;;;;;;;5044730;28;20372;-74
2022/05/29 02:33:22;;;;;;;;;;;;;;;;;;5043447;28;19921;-74
2022/05/29 02:35:56;;;;;;;;;;;;;;;;;;5040415;28;20292;-74
2022/05/29 02:38:31;;;;;;;;;;;;;;;;;;5036779;28;20398;-75
2022/05/29 02:41:06;;;;;;;;;;;;;;;;;;5044042;28;19919;-74
2022/05/29 02:43:32;;;;;;;;;;;;;;;;;;5050439;28;19919;-74
2022/05/29 02:46:15;;;;;;;;;;;;;;;;;;5040764;28;19989;-74
2022/05/29 02:48:41;;;;;;;;;;;;;;;;;;5047807;28;19917;-75
2022/05/29 02:51:09;;;;;;;;;;;;;;;;;;5064770;28;20406;-75
2022/05/29 02:53:35;;;;;;;;;;;;;;;;;;5047658;28;20299;-75
2022/05/29 02:56:05;;;;;;;;;;;;;;;;;;5045077;28;20396;-75
2022/05/29 02:58:32;;;;;;;;;;;;;;;;;;5048142;28;19913;-76
2022/05/29 03:01:16;;;;;;;;;;;;;;;;;;5049718;28;20040;-75
2022/05/29 03:03:48;;;;;;;;;;;;;;;;;;5042569;28;19921;-75
2022/05/29 03:06:23;;;;;;;;;;;;;;;;;;5049856;28;19923;-76
2022/05/29 03:08:58;;;;;;;;;;;;;;;;;;5049933;28;19913;-76
2022/05/29 03:11:38;;;;;;;;;;;;;;;;;;5046946;28;19920;-75
2022/05/29 03:14:03;;;;;;;;;;;;;;;;;;5042594;28;19913;-75
2022/05/29 03:16:49;;;;;;;;;;;;;;;;;;5049564;28;19924;-75
2022/05/29 03:19:21;;;;;;;;;;;;;;;;;;5022942;28;20395;-76
2022/05/29 03:21:55;;;;;;;;;;;;;;;;;;5041535;28;19917;-76
2022/05/29 03:24:24;;;;;;;;;;;;;;;;;;5050914;28;19913;-76
2022/05/29 03:26:52;;;;;;;;;;;;;;;;;;5046093;28;19913;-75
2022/05/29 03:29:25;;;;;;;;;;;;;;;;;;5039911;28;19935;-76
2022/05/29 03:31:51;;;;;;;;;;;;;;;;;;5050253;28;19946;-76
2022/05/29 03:34:16;;;;;;;;;;;;;;;;;;5050267;28;19913;-76
2022/05/29 03:36:46;;;;;;;;;;;;;;;;;;5049052;28;20399;-76
2022/05/29 03:39:11;;;;;;;;;;;;;;;;;;5046484;28;19912;-76
2022/05/29 03:41:44;;;;;;;;;;;;;;;;;;5050611;28;20276;-76
2022/05/29 03:44:13;;;;;;;;;;;;;;;;;;5044879;28;20023;-76
2022/05/29 03:46:39;;;;;;;;;;;;;;;;;;5047257;28;19912;-76
2022/05/29 03:49:06;;;;;;;;;;;;;;;;;;5062315;28;19912;-76
2022/05/29 03:51:32;;;;;;;;;;;;;;;;;;5046336;28;19921;-76
2022/05/29 03:53:57;;;;;;;;;;;;;;;;;;5042738;28;19981;-76
2022/05/29 03:56:23;;;;;;;;;;;;;;;;;;5042507;28;19923;-76
2022/05/29 03:58:48;;;;;;;;;;;;;;;;;;5048968;28;20068;-76
2022/05/29 04:01:14;;;;;;;;;;;;;;;;;;5051371;28;20556;-76
2022/05/29 04:03:39;;;;;;;;;;;;;;;;;;5045161;28;19919;-76
2022/05/29 04:06:05;;;;;;;;;;;;;;;;;;5049560;28;20010;-76
2022/05/29 04:14:00;;;;;;;;;;;;;;;;;;5045873;28;20441;-76
2022/05/29 04:16:26;;;;;;;;;;;;;;;;;;5062100;28;19986;-76
2022/05/29 04:18:51;;;;;;;;;;;;;;;;;;5047555;28;20009;-76
2022/05/29 04:21:17;;;;;;;;;;;;;;;;;;5045765;28;20388;-76
2022/05/29 04:23:42;;;;;;;;;;;;;;;;;;5046718;28;19916;-76
2022/05/29 04:26:08;;;;;;;;;;;;;;;;;;5034639;28;19919;-76
2022/05/29 04:28:34;;;;;;;;;;;;;;;;;;5045325;28;19919;-76
2022/05/29 04:30:59;;;;;;;;;;;;;;;;;;5056482;28;19913;-75
2022/05/29 04:33:25;;;;;;;;;;;;;;;;;;5054706;28;19912;-75
2022/05/29 04:35:52;;;;;;;;;;;;;;;;;;5041666;28;19924;-76
2022/05/29 04:38:17;;;;;;;;;;;;;;;;;;5044661;28;19994;-75
2022/05/29 04:40:43;;;;;;;;;;;;;;;;;;5046149;28;19964;-76
2022/05/29 04:43:10;;;;;;;;;;;;;;;;;;5044066;28;19913;-76
2022/05/29 04:45:37;;;;;;;;;;;;;;;;;;5036443;28;19917;-75
2022/05/29 04:48:03;;;;;;;;;;;;;;;;;;5038627;28;19920;-75
2022/05/29 04:50:28;;;;;;;;;;;;;;;;;;5042910;28;20283;-76
2022/05/29 04:52:54;;;;;;;;;;;;;;;;;;5046045;28;20388;-76
2022/05/29 04:55:19;;;;;;;;;;;;;;;;;;5045752;28;19923;-76
2022/05/29 04:57:45;;;;;;;;;;;;;;;;;;5042893;28;19924;-77
2022/05/29 05:00:11;;;;;;;;;;;;;;;;;;5044798;28;19991;-76
2022/05/29 05:02:36;;;;;;;;;;;;;;;;;;5046278;28;20484;-76
2022/05/29 05:05:02;;;;;;;;;;;;;;;;;;5043852;28;19920;-76
2022/05/29 05:07:28;;;;;;;;;;;;;;;;;;5044047;28;20403;-74
2022/05/29 05:09:54;;;;;;;;;;;;;;;;;;5058917;28;19924;-77
2022/05/29 05:12:19;;;;;;;;;;;;;;;;;;5040314;28;19917;-76
2022/05/29 05:14:45;;;;;;;;;;;;;;;;;;5057042;28;19920;-75
2022/05/29 05:17:10;;;;;;;;;;;;;;;;;;5061640;28;19919;-77
2022/05/29 05:19:36;;;;;;;;;;;;;;;;;;5045241;28;20380;-76
2022/05/29 05:22:02;;;;;;;;;;;;;;;;;;5042322;28;19920;-77
2022/05/29 05:24:27;;;;;;;;;;;;;;;;;;5038107;28;19932;-76
2022/05/29 05:26:53;;;;;;;;;;;;;;;;;;5043291;28;19917;-75
2022/05/29 05:29:19;;;;;;;;;;;;;;;;;;5040359;28;19913;-76
2022/05/29 05:31:44;;;;;;;;;;;;;;;;;;5052310;28;19912;-76
2022/05/29 05:34:10;;;;;;;;;;;;;;;;;;5065464;28;19934;-77
2022/05/29 05:36:35;;;;;;;;;;;;;;;;;;5048748;28;19924;-76
2022/05/29 05:39:01;;;;;;;;;;;;;;;;;;5041177;28;20364;-76
2022/05/29 05:41:26;;;;;;;;;;;;;;;;;;5060459;28;20261;-77
2022/05/29 05:43:51;;;;;;;;;;;;;;;;;;5053654;28;20529;-76
2022/05/29 05:46:18;;;;;;;;;;;;;;;;;;5051865;28;19928;-76
2022/05/29 05:48:44;;;;;;;;;;;;;;;;;;5036699;28;19916;-77
2022/05/29 05:51:10;;;;;;;;;;;;;;;;;;5062753;28;19917;-76
2022/05/29 05:53:37;;;;;;;;;;;;;;;;;;5058646;28;19924;-76
2022/05/29 05:56:06;;;;;;;;;;;;;;;;;;5039619;28;20087;-76
2022/05/29 05:58:32;;;;;;;;;;;;;;;;;;5037911;28;19913;-76
2022/05/29 06:00:57;;;;;;;;;;;;;;;;;;5062302;28;20302;-74
2022/05/29 06:03:22;;;;;;;;;;;;;;;;;;5054684;28;19913;-76
2022/05/29 06:05:48;;;;;;;;;;;;;;;;;;5038378;28;19983;-76
2022/05/29 06:08:14;;;;;;;;;;;;;;;;;;5043397;28;19913;-76
2022/05/29 06:10:39;;;;;;;;;;;;;;;;;;5047143;28;19920;-77
2022/05/29 06:13:05;;;;;;;;;;;;;;;;;;5049602;28;19913;-77
2022/05/29 06:15:32;;;;;;;;;;;;;;;;;;5040624;28;20019;-76
2022/05/29 06:17:57;;;;;;;;;;;;;;;;;;5050283;28;19948;-77
2022/05/29 06:20:24;;;;;;;;;;;;;;;;;;5055755;28;20300;-76
2022/05/29 06:22:50;;;;;;;;;;;;;;;;;;5054710;28;20003;-76
2022/05/29 06:25:16;;;;;;;;;;;;;;;;;;5048700;28;19960;-77
2022/05/29 06:27:43;;;;;;;;;;;;;;;;;;5058893;28;20427;-75
2022/05/29 06:30:10;;;;;;;;;;;;;;;;;;5053086;28;19956;-77
2022/05/29 06:32:36;;;;;;;;;;;;;;;;;;5054443;28;19959;-77
2022/05/29 06:35:02;;;;;;;;;;;;;;;;;;5033572;28;20450;-76
2022/05/29 06:37:28;;;;;;;;;;;;;;;;;;5050460;28;19935;-77
2022/05/29 06:39:53;;;;;;;;;;;;;;;;;;5059069;28;20513;-77
2022/05/29 06:42:18;;;;;;;;;;;;;;;;;;5040106;28;19916;-76
2022/05/29 06:44:44;;;;;;;;;;;;;;;;;;5043018;28;19919;-76
2022/05/29 06:47:10;;;;;;;;;;;;;;;;;;5044267;28;19932;-76
2022/05/29 06:49:36;;;;;;;;;;;;;;;;;;5043819;28;19924;-76
2022/05/29 06:52:05;;;;;;;;;;;;;;;;;;5043271;28;20372;-76
2022/05/29 06:54:31;;;;;;;;;;;;;;;;;;5037025;28;20471;-76
2022/05/29 06:56:57;;;;;;;;;;;;;;;;;;5035312;28;20011;-76
2022/05/29 06:59:22;;;;;;;;;;;;;;;;;;5041025;28;19912;-76
2022/05/29 07:07:16;;;;;;;;;;;;;;;;;;5049591;28;19921;-76
2022/05/29 07:09:42;;;;;;;;;;;;;;;;;;5051093;28;19919;-76
2022/05/29 07:12:13;;;;;;;;;;;;;;;;;;5040085;28;19951;-76
2022/05/29 07:15:06;;;;;;;;;;;;;;;;;;5041358;28;19913;-76
2022/05/29 07:17:32;;;;;;;;;;;;;;;;;;5046086;28;19924;-77
2022/05/29 07:19:57;;;;;;;;;;;;;;;;;;5043737;28;20457;-76
2022/05/29 07:22:23;;;;;;;;;;;;;;;;;;5045732;28;20501;-76
2022/05/29 07:24:49;;;;;;;;;;;;;;;;;;5036513;28;19991;-76
2022/05/29 07:27:14;;;;;;;;;;;;;;;;;;5047833;28;20388;-76
2022/05/29 07:29:40;;;;;;;;;;;;;;;;;;5042362;28;19913;-77
2022/05/29 07:32:06;;;;;;;;;;;;;;;;;;5035891;28;19971;-76
2022/05/29 07:34:32;;;;;;;;;;;;;;;;;;5046649;28;19947;-76
2022/05/29 07:37:05;;;;;;;;;;;;;;;;;;5048354;28;19921;-77
2022/05/29 07:39:34;;;;;;;;;;;;;;;;;;5036456;28;19917;-77
2022/05/29 07:44:43;;;;;;;;;;;;;;;;;;5054703;28;19913;-76
2022/05/29 07:47:09;;;;;;;;;;;;;;;;;;5046134;28;20022;-76
2022/05/29 07:49:37;;;;;;;;;;;;;;;;;;5036502;28;19979;-76
2022/05/29 07:52:03;;;;;;;;;;;;;;;;;;5050305;28;20020;-77
2022/05/29 07:54:28;;;;;;;;;;;;;;;;;;5045858;28;20318;-76
2022/05/29 07:56:54;;;;;;;;;;;;;;;;;;5040749;28;20779;-76
2022/05/29 07:59:19;;;;;;;;;;;;;;;;;;5039720;28;19983;-77
2022/05/29 08:01:45;;;;;;;;;;;;;;;;;;5049005;28;19916;-76
2022/05/29 08:04:10;;;;;;;;;;;;;;;;;;5050083;28;19935;-76
2022/05/29 08:06:35;;;;;;;;;;;;;;;;;;5041296;28;20007;-76
2022/05/29 08:09:01;;;;;;;;;;;;;;;;;;5055237;28;19920;-76
2022/05/29 08:11:26;;;;;;;;;;;;;;;;;;5061840;28;19916;-77
2022/05/29 08:13:53;;;;;;;;;;;;;;;;;;5035983;28;20007;-76
2022/05/29 08:16:19;;;;;;;;;;;;;;;;;;5053407;28;19920;-77
2022/05/29 08:18:46;;;;;;;;;;;;;;;;;;5047940;28;19917;-75
2022/05/29 08:21:12;;;;;;;;;;;;;;;;;;5049166;28;19920;-77
2022/05/29 08:23:38;;;;;;;;;;;;;;;;;;5042232;28;19916;-76
2022/05/29 08:31:32;;;;;;;;;;;;;;;;;;5040869;28;19917;-77
2022/05/29 08:33:57;;;;;;;;;;;;;;;;;;5044183;28;19920;-76
2022/05/29 08:36:26;;;;;;;;;;;;;;;;;;5056954;28;19920;-77
2022/05/29 08:38:54;;;;;;;;;;;;;;;;;;5044540;28;19917;-76
2022/05/29 08:41:31;;;;;;;;;;;;;;;;;;5036099;28;20414;-76
2022/05/29 08:44:09;;;;;;;;;;;;;;;;;;5049245;28;20053;-75
2022/05/29 08:46:39;;;;;;;;;;;;;;;;;;5044988;28;20311;-75
2022/05/29 08:49:05;;;;;;;;;;;;;;;;;;5036990;28;20389;-76
2022/05/29 08:51:40;;;;;;;;;;;;;;;;;;5050270;28;19912;-76
2022/05/29 08:54:09;;;;;;;;;;;;;;;;;;5042660;28;19917;-76
2022/05/29 08:56:40;;;;;;;;;;;;;;;;;;5034402;28;19932;-76
2022/05/29 08:59:07;;;;;;;;;;;;;;;;;;5046565;28;19913;-76
2022/05/29 09:02:11;;;;;;;;;;;;;;;;;;5053026;28;20406;-76
2022/05/29 09:04:42;;;;;;;;;;;;;;;;;;4979489;28;19965;-75
2022/05/29 09:07:09;;;;;;;;;;;;;;;;;;4981815;28;20505;-76
2022/05/29 09:09:56;;;;;;;;;;;;;;;;;;4967735;28;20004;-75
2022/05/29 09:12:32;;;;;;;;;;;;;;;;;;4981669;28;20409;-75
2022/05/29 09:15:00;;;;;;;;;;;;;;;;;;4982105;28;19957;-75
2022/05/29 09:17:38;;;;;;;;;;;;;;;;;;4979310;28;19918;-75
2022/05/29 09:20:13;;;;;;;;;;;;;;;;;;4981392;28;19921;-75
2022/05/29 09:22:41;;;;;;;;;;;;;;;;;;4982295;28;19913;-75
2022/05/29 09:25:06;;;;;;;;;;;;;;;;;;4978470;28;19957;-76
2022/05/29 09:27:34;;;;;;;;;;;;;;;;;;4979271;28;20012;-76
2022/05/29 09:29:59;;;;;;;;;;;;;;;;;;4982899;28;19922;-76
2022/05/29 09:32:27;;;;;;;;;;;;;;;;;;4976903;28;19920;-75
2022/05/29 09:34:57;;;;;;;;;;;;;;;;;;5002024;28;19921;-76
2022/05/29 09:37:29;;;;;;;;;;;;;;;;;;5045606;28;19926;-75
2022/05/29 09:39:57;;;;;;;;;;;;;;;;;;5037687;28;19963;-75
2022/05/29 09:42:28;;;;;;;;;;;;;;;;;;5039139;28;20516;-76
2022/05/29 09:45:06;;;;;;;;;;;;;;;;;;5042199;28;20013;-76
2022/05/29 09:50:16;;;;;;;;;;;;;;;;;;5050844;28;19980;-75
2022/05/29 09:52:43;;;;;;;;;;;;;;;;;;5048796;28;20338;-75
2022/05/29 09:55:25;;;;;;;;;;;;;;;;;;5037968;28;19917;-75
2022/05/29 09:58:01;;;;;;;;;;;;;;;;;;5041909;28;19947;-75
2022/05/29 10:00:32;;;;;;;;;;;;;;;;;;5047309;28;20422;-75
2022/05/29 10:03:57;;;;;;;7.43;5.70;;;;;;;;;;5062981;27;20368;-62
2022/05/29 10:06:29;;;;;;;9.00;5.80;;;;;;;;;;5037846;28;20072;-62
2022/05/29 10:09:27;;;;;;;7.55;5.97;;;;;;;;;;5040265;28;20033;-62
2022/05/29 10:11:58;;;;;;;6.95;6.20;;;;;;;;;;5029547;28;20659;-62
2022/05/29 10:14:35;;;;;;;8.02;5.50;;;;;;;;;;5040059;28;20049;-62
2022/05/29 10:17:06;;;;;;;8.00;5.90;;;;;;;;;;5039658;28;20061;-62
2022/05/29 10:19:36;;;;;;;6.40;5.35;;;;;;;;;;5023560;28;20664;-62
2022/05/29 10:22:10;;;;;;;6.95;5.70;;;;;;;;;;5041269;28;20045;-62
2022/05/29 10:24:40;;;;;;;5.95;5.45;;;;;;;;;;5037554;28;20060;-62
2022/05/29 10:27:12;;;;;;;8.85;5.60;;;;;;;;;;5038612;28;20110;-62
2022/05/29 10:29:40;;;;;;;6.40;5.80;;;;;;;;;;5040902;28;20049;-62
2022/05/29 10:32:09;;;;;;;6.25;5.70;;;;;;;;;;5029473;28;20048;-63
2022/05/29 10:34:38;;;;;;;6.45;5.78;;;;;;;;;;5029798;28;20483;-62
2022/05/29 10:37:42;;;;;;;5.18;4.80;;;;;;;;;;5039395;28;20103;-62
2022/05/29 10:40:11;;;;;;;5.55;5.15;;;;;;;;;;5038145;28;20041;-61
2022/05/29 10:42:44;;;;;;;6.03;5.60;;;;;;;;;;5051667;28;20048;-62
2022/05/29 10:45:28;;;;;;;5.85;5.45;;;;;;;;;;5050897;28;20166;-62
2022/05/29 10:48:07;;;;;;;6.00;5.50;;;;;;;;;;5063754;28;20521;-62
2022/05/29 10:50:39;;;;;;;6.03;5.40;;;;;;;;;;5048838;28;20028;-62
2022/05/29 10:53:16;;;;;;;6.00;5.53;;;;;;;;;;5060587;28;20029;-62
2022/05/29 10:56:07;;;;;;;6.80;5.47;;;;;;;;;;5063337;28;20476;-62
2022/05/29 10:59:11;;;;;;;6.72;5.40;;;;;;;;;;5060654;28;20075;-62
2022/05/29 11:04:38;;;;;;;6.25;5.80;;;;;;;;;;5056558;28;20037;-61
2022/05/29 11:07:29;;;;;;;8.13;6.50;;;;;;;;;;5062510;28;20028;-61
2022/05/29 11:10:00;;;;;;;7.18;6.47;;;;;;;;;;5058145;28;20432;-61
2022/05/29 11:12:41;;;;;;;7.95;7.30;;;;;;;;;;5051432;28;20030;-61
2022/05/29 11:15:18;;;;;;;8.82;8.00;;;;;;;;;;5045615;28;20395;-61
2022/05/29 11:17:44;;;;;;;8.48;7.82;;;;;;;;;;5042964;28;20040;-59
2022/05/29 11:20:25;;;;;;;10.98;8.80;;;;;;;;;;5042821;28;20041;-58
2022/05/29 11:22:58;;;;;;;10.48;9.57;;;;;;;;;;5042423;28;20044;-60
2022/05/29 11:25:45;;;;;;;9.70;9.00;;;;;;;;;;5047170;28;20082;-57
2022/05/29 11:28:36;;;;;;;10.85;10.05;;;;;;;;;;5044198;28;20452;-59
2022/05/29 11:31:32;;;;;;;10.30;9.70;;;;;;;;;;5037670;28;20040;-58
2022/05/29 11:34:07;;;;;;;10.25;9.35;;;;;;;;;;5044738;28;20033;-57
2022/05/29 11:37:24;;;;;;;11.18;10.38;;;;;;;;;;5046028;28;20082;-59
2022/05/29 11:40:00;;;;;;;11.38;10.48;;;;;;;;;;4998487;28;20520;-60
2022/05/29 11:42:45;;;;;;;12.10;11.30;;;;;;;;;;4996432;28;20034;-60
2022/05/29 11:51:46;;;;;;;12.60;11.43;;;;;;;;;;4999210;28;20119;-59
2022/05/29 11:54:18;;;;;;;13.18;12.13;;;;;;;;;;5000386;28;20034;-59
2022/05/29 11:56:51;;;;;;;12.27;11.20;;;;;;;;;;5005622;28;20065;-60
2022/05/29 11:59:25;;;;;;;11.30;10.50;;;;;;;;;;4998388;28;20037;-58
2022/05/29 12:02:22;;;;;;;11.00;10.20;;;;;;;;;;5023126;28;20121;-59
2022/05/29 12:04:59;;;;;;;11.68;10.57;;;;;;;;;;5015246;28;20049;-60
2022/05/29 12:07:50;;;;;;;11.55;10.70;;;;;;;;;;5019464;28;20049;-60
2022/05/29 12:10:21;;;;;;;11.88;10.88;;;;;;;;;;5012569;28;20577;-60
2022/05/29 12:12:59;;;;;;;12.10;10.95;;;;;;;;;;5043023;28;20044;-60
2022/05/29 12:15:25;;;;;;;11.10;10.20;;;;;;;;;;5044316;28;20262;-59
2022/05/29 12:17:58;;;;;;;11.35;10.27;;;;;;;;;;5048023;28;20039;-60
2022/05/29 12:20:42;;;;;;;11.60;10.77;;;;;;;;;;5041492;28;20126;-60
2022/05/29 12:23:27;;;;;;;10.80;10.00;;;;;;;;;;5046503;28;20159;-59
2022/05/29 12:26:18;;;;;;;11.10;10.20;;;;;;;;;;5055033;28;20559;-59
2022/05/29 12:28:56;;;;;;;10.77;10.07;;;;;;;;;;5045166;28;20041;-60
2022/05/29 12:31:32;;;;;;;11.10;10.13;;;;;;;;;;5021930;28;20053;-61
2022/05/29 12:33:58;;;;;;;10.70;10.02;;;;;;;;;;5046025;28;20037;-61
2022/05/29 12:36:59;;;;;;;10.40;9.70;;;;;;;;;;5047293;28;20114;-61
2022/05/29 12:39:50;;;;;;;10.57;9.88;;;;;;;;;;5042789;28;20088;-59
2022/05/29 12:42:15;;;;;;;11.13;10.43;;;;;;;;;;5043981;28;20029;-61
2022/05/29 12:44:57;;;;;;;10.90;10.15;;;;;;;;;;5045831;28;20345;-61
2022/05/29 12:47:31;;;;;;;11.00;10.20;;;;;;;;;;5045972;28;20033;-62
2022/05/29 12:50:31;;;;;;;10.68;9.80;;;;;;;;;;5042863;28;20098;-62
2022/05/29 12:53:17;;;;;;;10.15;9.55;;;;;;;;;;5044758;28;20555;-62
2022/05/29 12:56:21;;;;;;;10.40;9.70;;;;;;;;;;5045486;28;20041;-61
2022/05/29 12:58:52;;;;;;;10.32;9.63;;;;;;;;;;5033709;28;20052;-61
2022/05/29 13:01:47;;;;;;;10.15;9.55;;;;;;;;;;5046004;28;20154;-61
2022/05/29 13:04:46;;;;;;;10.27;9.45;;;;;;;;;;5042728;28;20533;-61
2022/05/29 13:07:21;;;;;;;9.80;9.20;;;;;;;;;;5048407;28;20171;-61
2022/05/29 13:09:59;;;;;;;9.93;9.32;;;;;;;;;;5054679;28;20039;-61
2022/05/29 13:12:36;;;;;;;9.85;9.20;;;;;;;;;;5044863;28;20029;-61
2022/05/29 13:15:06;;;;;;;9.98;9.32;;;;;;;;;;5044187;28;20067;-62
2022/05/29 13:17:34;;;;;;;10.35;9.63;;;;;;;;;;5044319;28;20037;-61
2022/05/29 13:20:02;;;;;;;10.10;9.40;;;;;;;;;;5046569;28;20124;-62
2022/05/29 13:22:49;;;;;;;10.75;9.88;;;;;;;;;;5041733;28;20048;-61
2022/05/29 13:25:17;;;;;;;10.25;9.35;;;;;;;;;;5044741;28;20037;-63
2022/05/29 13:27:43;;;;;;;8.60;7.75;;;;;;;;;;5037629;28;20110;-63
2022/05/29 13:30:35;;;;;;;8.55;7.85;;;;;;;;;;5045881;28;20040;-62
2022/05/29 13:33:28;;;;;;;8.85;8.02;;;;;;;;;;5034295;28;20471;-63
2022/05/29 13:35:55;;;;;;;9.48;7.80;;;;;;;;;;5046226;28;20581;-63
2022/05/29 13:38:46;;;;;;;7.47;6.97;;;;;;;;;;5048308;28;20043;-63
2022/05/29 13:41:50;;;;;;;8.38;7.68;;;;;;;;;;5040356;28;20033;-63
2022/05/29 13:44:40;;;;;;;7.38;6.88;;;;;;;;;;5042299;28;20495;-64
2022/05/29 13:47:22;;;;;;;7.70;7.10;;;;;;;;;;5043899;28;20723;-64
2022/05/29 13:50:04;;;;;;;7.60;7.10;;;;;;;;;;5040313;28;20099;-63
2022/05/29 13:52:39;;;;;;;7.00;6.50;;;;;;;;;;5041599;28;20415;-63
2022/05/29 13:55:17;;;;;;;7.38;6.75;;;;;;;;;;5043714;28;20056;-63
2022/05/29 14:03:59;;;;;;;7.35;6.65;;;;;;;;;;5043773;28;20128;-62
2022/05/29 14:06:30;;;;;;;7.63;6.50;;;;;;;;;;5044689;28;20104;-62
2022/05/29 14:08:59;;;;;;;7.28;6.75;;;;;;;;;;5036861;28;20036;-62
2022/05/29 14:11:51;;;;;;;7.03;6.55;;;;;;;;;;5035759;28;21156;-63
2022/05/29 14:14:37;;;;;;;7.38;6.78;;;;;;;;;;5033550;28;20041;-62
2022/05/29 14:17:21;;;;;;;7.63;6.93;;;;;;;;;;5040955;28;20075;-63
2022/05/29 14:20:08;;;;;;;7.72;7.13;;;;;;;;;;5038128;28;20068;-62
2022/05/29 14:22:56;;;;;;;6.90;6.40;;;;;;;;;;5041564;28;20033;-62
2022/05/29 14:25:26;;;;;;;7.30;6.80;;;;;;;;;;5037709;28;20053;-63
2022/05/29 14:28:20;;;;;;;7.10;6.60;;;;;;;;;;5040607;28;20123;-63
2022/05/29 14:30:57;;;;;;;6.93;6.47;;;;;;;;;;5043876;28;20036;-61
2022/05/29 14:33:32;;;;;;;6.82;6.25;;;;;;;;;;5038413;28;20418;-63
2022/05/29 14:36:19;;;;;;;6.55;6.15;;;;;;;;;;5040212;28;20041;-62
2022/05/29 14:38:57;;;;;;;7.18;6.70;;;;;;;;;;5042341;28;20047;-62
2022/05/29 14:41:34;;;;;;;7.30;6.80;;;;;;;;;;5039357;28;20064;-61
2022/05/29 14:44:19;;;;;;;6.85;6.38;;;;;;;;;;5038116;28;20040;-61
2022/05/29 14:49:51;;;;;;;6.50;6.20;;;;;;;;;;5049302;28;20181;-62
2022/05/29 14:52:36;;;;;;;6.68;6.18;;;;;;;;;;5048169;28;20041;-63
2022/05/29 14:55:12;;;;;;;7.30;6.70;;;;;;;;;;5051853;28;20115;-63
2022/05/29 14:57:52;;;;;;;6.47;6.00;;;;;;;;;;5042952;28;20037;-62
2022/05/29 15:00:39;;;;;;;6.72;6.30;;;;;;;;;;5048312;28;20373;-62
2022/05/29 15:03:30;;;;;;;7.25;6.55;;;;;;;;;;5047361;28;20044;-63
2022/05/29 15:06:01;;;;;;;7.00;6.45;;;;;;;;;;5049341;28;20111;-63
2022/05/29 15:11:39;;;;;;;9.45;8.77;;;;;;;;;;5049294;28;20116;-62
2022/05/29 15:14:10;;;;;;;18.02;16.48;;;;;;;;;;5044339;28;20036;-62
2022/05/29 15:16:35;;;;;;;9.23;8.50;;;;;;;;;;5044560;28;20154;-62
2022/05/29 15:25:34;;;;;;;8.23;7.38;;;;;;;;;;5038290;28;20048;-61
2022/05/29 15:27:59;;;;;;;10.50;9.60;;;;;;;;;;5046266;28;20053;-62
2022/05/29 15:30:26;;;;;;;10.15;9.35;;;;;;;;;;5046340;28;20509;-63
2022/05/29 15:32:56;;;;;;;12.90;11.70;;;;;;;;;;5046591;28;20396;-62
2022/05/29 15:36:00;;;;;;;8.23;7.65;;;;;;;;;;5045102;28;20123;-63
2022/05/29 15:38:35;;;;;;;7.68;7.07;;;;;;;;;;5025589;28;20033;-62
2022/05/29 15:41:28;;;;;;;7.28;6.78;;;;;;;;;;5017998;28;20136;-60
2022/05/29 15:44:15;;;;;;;8.30;7.60;;;;;;;;;;5024185;28;20041;-62
2022/05/29 15:47:13;;;;;;;7.85;7.20;;;;;;;;;;5019369;28;20080;-62
2022/05/29 15:49:55;;;;;;;7.50;6.90;;;;;;;;;;5019092;28;20049;-63
2022/05/29 15:52:50;;;;;;;8.25;7.35;;;;;;;;;;5015140;28;20033;-62
2022/05/29 15:55:42;;;;;;;6.97;6.50;;;;;;;;;;4930915;28;20036;-61
2022/05/29 15:58:31;;;;;;;7.07;6.47;;;;;;;;;;5007773;28;20404;-61
2022/05/29 16:01:11;;;;;;;6.35;5.95;;;;;;;;;;5013932;28;20503;-62
2022/05/29 16:03:39;;;;;;;6.65;6.15;;;;;;;;;;5013918;28;20081;-63
2022/05/29 16:06:07;;;;;;;6.75;6.35;;;;;;;;;;5025310;28;20812;-62
2022/05/29 16:08:38;;;;;;;6.60;6.10;;;;;;;;;;5030909;28;20094;-62
2022/05/29 16:11:06;;;;;;;7.28;6.68;;;;;;;;;;5046849;28;20041;-63
2022/05/29 16:13:45;;;;;;;7.15;6.65;;;;;;;;;;5047102;28;20029;-63
2022/05/29 16:16:15;;;;;;;;;;;;;;;;;;5042944;28;20091;-63
2022/05/29 16:19:06;;;;;;;6.93;6.32;;;;;;;;;;5049246;28;19974;-63
2022/05/29 16:21:34;;;;;;;6.35;5.85;;;;;;;;;;5043305;28;20078;-63
2022/05/29 16:24:05;;;;;;;6.93;6.43;;;;;;;;;;5050300;28;20060;-63
2022/05/29 16:26:45;;;;;;;9.27;8.40;;;;;;;;;;5055306;28;20063;-63
2022/05/29 16:29:34;;;;;;;7.07;6.50;;;;;;;;;;5045758;28;20542;-62
2022/05/29 16:32:33;;;;;;;9.40;6.65;;;;;;;;;;5047761;28;20392;-63
2022/05/29 16:35:11;;;;;;;6.80;6.30;;;;;;;;;;5050187;28;20040;-63
2022/05/29 16:49:03;;;;;;;6.82;6.20;;;;;;;;;;5042065;28;20077;-64
2022/05/29 16:51:41;;;;;;;7.65;6.20;;;;;;;;;;5038271;28;20147;-63
2022/05/29 16:54:28;;;;;;;6.45;5.95;;;;;;;;;;5044071;28;20040;-64
2022/05/29 16:57:06;;;;;;;6.38;5.80;;;;;;;;;;5042418;28;20040;-62
2022/05/29 17:00:00;;;;;;;6.95;6.45;;;;;;;;;;5048313;28;20400;-63
2022/05/29 17:02:41;;;;;;;6.85;6.10;;;;;;;;;;5046676;28;20623;-62
2022/05/29 17:05:13;;;;;;;6.32;5.85;;;;;;;;;;5046298;28;20518;-63
2022/05/29 17:07:50;;;;;;;7.60;6.10;;;;;;;;;;5048134;28;20036;-63
2022/05/29 17:10:22;;;;;;;6.32;5.90;;;;;;;;;;5042658;28;20037;-63
2022/05/29 17:12:48;;;;;;;6.30;5.80;;;;;;;;;;5044788;28;20033;-62
2022/05/29 17:15:19;;;;;;;6.50;6.00;;;;;;;;;;5046128;28;20040;-63
2022/05/29 17:17:45;;;;;;;6.38;5.88;;;;;;;;;;5046379;28;20120;-63
2022/05/29 17:20:12;;;;;;;7.15;6.10;;;;;;;;;;5043499;28;20075;-63
2022/05/29 17:22:56;;;;;;;6.75;6.10;;;;;;;;;;5044888;28;20037;-62
2022/05/29 17:25:44;;;;;;;6.70;6.10;;;;;;;;;;5056468;28;20082;-63
2022/05/29 17:28:42;;;;;;;6.60;6.00;;;;;;;;;;5044406;28;20111;-63